createdAt,value
2022-12-11T00:00:20.991Z,5.00
2022-12-11T00:03:23.822Z,4.60
2022-12-11T00:06:26.717Z,5.03
2022-12-11T00:09:29.821Z,4.95
2022-12-11T00:12:32.887Z,5.63
2022-12-11T00:15:37.911Z,3.43
2022-12-11T00:18:40.903Z,4.87
2022-12-11T00:21:43.760Z,4.15
2022-12-11T00:24:46.583Z,3.85
2022-12-11T00:27:49.352Z,3.45
2022-12-11T00:30:52.314Z,4.07
2022-12-11T00:33:55.062Z,3.27
2022-12-11T00:36:59.309Z,3.08
2022-12-11T00:40:02.209Z,3.33
2022-12-11T00:43:06.480Z,3.80
2022-12-11T00:46:10.169Z,3.17
2022-12-11T00:49:13.235Z,3.30
2022-12-11T00:52:18.075Z,3.60
2022-12-11T00:55:21.123Z,3.50
2022-12-11T00:58:24.237Z,1.90
2022-12-11T01:01:27.701Z,2.37
2022-12-11T01:04:30.658Z,2.57
2022-12-11T01:07:33.392Z,2.53
2022-12-11T01:10:36.323Z,2.53
2022-12-11T01:13:40.727Z,2.08
2022-12-11T01:16:43.595Z,3.07
2022-12-11T01:19:46.740Z,2.30
2022-12-11T01:22:53.775Z,1.77
2022-12-11T01:25:56.571Z,1.98
2022-12-11T01:28:59.547Z,1.88
2022-12-11T01:32:02.301Z,1.73
2022-12-11T01:35:07.333Z,2.03
2022-12-11T01:38:10.563Z,2.13
2022-12-11T01:41:14.064Z,1.90
2022-12-11T01:44:16.949Z,1.55
2022-12-11T01:47:19.835Z,1.97
2022-12-11T01:50:23.063Z,1.70
2022-12-11T01:53:32.566Z,2.00
2022-12-11T01:56:37.626Z,1.67
2022-12-11T01:59:43.729Z,1.30
2022-12-11T02:02:46.655Z,2.20
2022-12-11T02:05:49.960Z,1.70
2022-12-11T02:08:52.698Z,1.35
2022-12-11T02:11:58.528Z,1.40
2022-12-11T02:15:19.370Z,2.03
2022-12-11T02:18:44.515Z,1.80
2022-12-11T02:21:51.606Z,1.73
2022-12-11T02:25:19.513Z,1.30
2022-12-11T02:28:47.251Z,2.15
2022-12-11T02:32:15.299Z,2.35
2022-12-11T02:35:24.345Z,1.67
2022-12-11T02:38:32.911Z,2.27
2022-12-11T02:41:36.412Z,2.63
2022-12-11T02:44:40.726Z,3.10
2022-12-11T02:47:48.005Z,1.77
2022-12-11T02:50:57.410Z,2.40
2022-12-11T02:54:01.217Z,2.30
2022-12-11T02:57:09.446Z,2.22
2022-12-11T03:00:13.162Z,2.13
2022-12-11T03:03:16.579Z,2.05
2022-12-11T03:06:24.764Z,1.93
2022-12-11T03:09:29.721Z,2.13
2022-12-11T03:12:37.149Z,2.28
2022-12-11T03:16:03.511Z,2.50
2022-12-11T03:19:06.625Z,2.60
2022-12-11T03:22:14.031Z,2.33
2022-12-11T03:25:22.365Z,2.70
2022-12-11T03:28:56.483Z,2.90
2022-12-11T03:32:23.270Z,2.58
2022-12-11T03:35:31.706Z,2.10
2022-12-11T03:39:09.663Z,3.07
2022-12-11T03:42:14.657Z,3.13
2022-12-11T03:45:19.597Z,3.53
2022-12-11T03:48:24.927Z,3.40
2022-12-11T03:51:31.286Z,4.63
2022-12-11T03:54:35.607Z,4.47
2022-12-11T03:57:39.010Z,4.20
2022-12-11T04:00:42.102Z,4.57
2022-12-11T04:03:44.898Z,4.20
2022-12-11T04:06:47.711Z,4.45
2022-12-11T04:09:50.598Z,4.50
2022-12-11T04:12:53.484Z,4.00
2022-12-11T04:15:56.300Z,4.47
2022-12-11T04:19:17.675Z,4.22
2022-12-11T04:22:38.819Z,4.63
2022-12-11T04:25:41.628Z,4.30
2022-12-11T04:28:45.894Z,5.37
2022-12-11T04:31:48.672Z,4.95
2022-12-11T04:34:51.507Z,5.30
2022-12-11T04:37:54.382Z,5.40
2022-12-11T04:41:02.475Z,5.17
2022-12-11T04:44:05.919Z,5.20
2022-12-11T04:47:08.717Z,6.57
2022-12-11T04:50:18.396Z,5.90
2022-12-11T04:53:21.286Z,5.55
2022-12-11T04:56:24.115Z,5.10
2022-12-11T04:59:26.989Z,5.73
2022-12-11T05:02:29.867Z,5.72
2022-12-11T05:05:32.723Z,6.00
2022-12-11T05:08:37.413Z,5.00
2022-12-11T05:11:40.827Z,5.83
2022-12-11T05:14:44.838Z,5.90
2022-12-11T05:17:48.154Z,6.82
2022-12-11T05:20:58.555Z,5.90
2022-12-11T05:24:01.552Z,5.22
2022-12-11T05:27:04.459Z,4.60
2022-12-11T05:30:08.159Z,5.47
2022-12-11T05:33:11.018Z,5.85
2022-12-11T05:36:19.910Z,5.68
2022-12-11T05:39:22.810Z,6.18
2022-12-11T05:42:29.003Z,5.90
2022-12-11T05:45:33.080Z,5.20
2022-12-11T05:48:36.595Z,5.75
2022-12-11T05:51:39.860Z,6.30
2022-12-11T05:54:42.828Z,5.88
2022-12-11T05:57:45.603Z,6.23
2022-12-11T06:00:49.755Z,5.80
2022-12-11T06:03:54.161Z,5.88
2022-12-11T06:06:56.972Z,6.40
2022-12-11T06:10:00.023Z,5.93
2022-12-11T06:13:02.997Z,5.97
2022-12-11T06:16:08.101Z,6.17
2022-12-11T06:19:18.689Z,5.80
2022-12-11T06:22:22.573Z,5.90
2022-12-11T06:25:25.534Z,6.20
2022-12-11T06:28:28.343Z,5.73
2022-12-11T06:31:31.213Z,6.70
2022-12-11T06:34:34.559Z,8.63
2022-12-11T06:37:38.099Z,6.65
2022-12-11T06:40:41.689Z,6.88
2022-12-11T06:43:45.112Z,6.40
2022-12-11T06:46:47.920Z,6.60
2022-12-11T06:49:50.719Z,7.50
2022-12-11T06:52:53.754Z,6.60
2022-12-11T06:55:56.515Z,6.78
2022-12-11T06:59:04.239Z,6.50
2022-12-11T07:02:20.432Z,7.20
2022-12-11T07:05:23.972Z,5.45
2022-12-11T07:08:29.348Z,6.78
2022-12-11T07:11:32.395Z,7.00
2022-12-11T07:14:35.529Z,7.30
2022-12-11T07:17:38.399Z,6.73
2022-12-11T07:20:41.606Z,7.60
2022-12-11T07:23:44.670Z,7.38
2022-12-11T07:26:47.644Z,7.82
2022-12-11T07:29:51.215Z,9.50
2022-12-11T07:32:54.124Z,9.43
2022-12-11T07:35:56.980Z,10.88
2022-12-11T07:39:02.175Z,9.02
2022-12-11T07:42:05.018Z,10.43
2022-12-11T07:45:08.728Z,8.77
2022-12-11T07:48:12.911Z,9.07
2022-12-11T07:51:26.545Z,9.40
2022-12-11T07:54:29.689Z,11.07
2022-12-11T07:57:32.476Z,11.27
2022-12-11T08:00:36.472Z,8.37
2022-12-11T08:03:40.246Z,9.23
2022-12-11T08:06:43.866Z,8.32
2022-12-11T08:09:46.851Z,8.85
2022-12-11T08:12:49.682Z,8.65
2022-12-11T08:15:54.800Z,9.73
2022-12-11T08:18:58.435Z,9.00
2022-12-11T08:22:02.332Z,9.32
2022-12-11T08:25:05.661Z,9.35
2022-12-11T08:28:08.578Z,9.98
2022-12-11T08:31:13.897Z,10.23
2022-12-11T08:34:16.671Z,10.07
2022-12-11T08:37:19.463Z,9.65
2022-12-11T08:40:22.202Z,9.80
2022-12-11T08:43:25.256Z,9.27
2022-12-11T08:46:31.531Z,6.80
2022-12-11T08:49:34.817Z,8.00
2022-12-11T08:52:37.662Z,9.60
2022-12-11T08:55:40.851Z,9.90
2022-12-11T08:58:44.606Z,8.30
2022-12-11T09:01:47.488Z,9.73
2022-12-11T09:04:50.767Z,9.13
2022-12-11T09:07:53.603Z,9.88
2022-12-11T09:10:56.545Z,7.90
2022-12-11T09:14:05.146Z,8.30
2022-12-11T09:17:09.906Z,7.90
2022-12-11T09:20:12.743Z,9.73
2022-12-11T09:23:17.602Z,8.93
2022-12-11T09:26:21.639Z,7.80
2022-12-11T09:29:25.386Z,6.82
2022-12-11T09:32:28.477Z,8.20
2022-12-11T09:35:31.301Z,9.60
2022-12-11T09:38:34.993Z,9.02
2022-12-11T09:41:47.328Z,9.45
2022-12-11T09:45:00.737Z,6.97
2022-12-11T09:48:03.690Z,8.03
2022-12-11T09:51:18.966Z,7.70
2022-12-11T09:54:21.880Z,8.25
2022-12-11T09:57:27.506Z,7.38
2022-12-11T10:01:22.848Z,8.50
2022-12-11T10:04:56.511Z,8.33
2022-12-11T10:08:36.824Z,7.13
2022-12-11T10:12:12.721Z,8.50
2022-12-11T10:15:30.788Z,8.10
2022-12-11T10:18:34.369Z,7.47
2022-12-11T10:21:41.740Z,8.33
2022-12-11T10:25:11.619Z,8.10
2022-12-11T10:28:20.551Z,7.60
2022-12-11T10:31:29.827Z,7.47
2022-12-11T10:34:40.425Z,8.25
2022-12-11T10:37:43.189Z,7.43
2022-12-11T10:41:12.665Z,8.10
2022-12-11T10:44:27.359Z,7.75
2022-12-11T10:47:30.325Z,7.72
2022-12-11T10:50:34.124Z,9.32
2022-12-11T10:53:37.121Z,7.00
2022-12-11T10:56:39.971Z,7.13
2022-12-11T10:59:50.593Z,6.80
2022-12-11T11:02:53.745Z,10.38
2022-12-11T11:06:23.429Z,7.93
2022-12-11T11:09:36.402Z,7.70
2022-12-11T11:12:42.511Z,7.53
2022-12-11T11:15:45.563Z,9.70
2022-12-11T11:18:54.850Z,9.27
2022-12-11T11:22:19.551Z,6.65
2022-12-11T11:25:28.845Z,7.23
2022-12-11T11:28:38.136Z,9.87
2022-12-11T11:31:42.538Z,8.93
2022-12-11T11:34:45.430Z,10.88
2022-12-11T11:38:00.839Z,9.20
2022-12-11T11:41:21.291Z,6.67
2022-12-11T11:44:49.810Z,7.87
2022-12-11T11:48:18.153Z,9.65
2022-12-11T11:51:40.408Z,7.75
2022-12-11T11:55:18.485Z,7.50
2022-12-11T11:58:45.241Z,7.50
2022-12-11T12:01:48.106Z,8.03
2022-12-11T12:04:51.671Z,12.30
2022-12-11T12:08:06.661Z,13.63
2022-12-11T12:11:12.764Z,13.82
2022-12-11T12:18:04.052Z,20.80
2022-12-11T12:21:17.520Z,16.30
2022-12-11T12:24:59.932Z,14.10
2022-12-11T12:28:23.996Z,24.45
2022-12-11T12:31:57.801Z,12.60
2022-12-11T12:35:12.916Z,8.87
2022-12-11T12:38:33.064Z,8.57
2022-12-11T12:42:17.268Z,6.93
2022-12-11T12:45:48.698Z,7.65
2022-12-11T12:48:55.246Z,7.63
2022-12-11T12:51:59.131Z,7.80
2022-12-11T12:55:14.607Z,8.55
2022-12-11T12:58:27.163Z,8.32
2022-12-11T13:01:31.836Z,7.93
2022-12-11T13:04:55.866Z,5.30
2022-12-11T13:08:05.303Z,6.87
2022-12-11T13:11:11.481Z,7.30
2022-12-11T13:14:14.344Z,6.93
2022-12-11T13:17:20.140Z,6.72
2022-12-11T13:20:29.159Z,5.90
2022-12-11T13:23:34.946Z,6.60
2022-12-11T13:26:37.757Z,6.53
2022-12-11T13:29:42.367Z,5.82
2022-12-11T13:32:57.257Z,6.07
2022-12-11T13:36:25.071Z,8.40
2022-12-11T13:39:31.154Z,6.53
2022-12-11T13:42:47.795Z,7.25
2022-12-11T13:45:53.741Z,8.00
2022-12-11T13:49:02.663Z,7.05
2022-12-11T13:52:07.411Z,7.87
2022-12-11T13:55:22.112Z,7.80
2022-12-11T13:58:25.305Z,7.88
2022-12-11T14:01:33.478Z,7.00
2022-12-11T14:04:37.993Z,6.70
2022-12-11T14:07:49.333Z,6.03
2022-12-11T14:10:55.907Z,6.87
2022-12-11T14:14:01.886Z,7.18
2022-12-11T14:17:04.953Z,7.40
2022-12-11T14:20:20.661Z,8.88
2022-12-11T14:23:27.112Z,7.63
2022-12-11T14:26:33.101Z,9.53
2022-12-11T14:29:35.910Z,9.57
2022-12-11T14:32:45.269Z,8.07
2022-12-11T14:35:50.895Z,7.57
2022-12-11T14:38:57.840Z,7.40
2022-12-11T14:42:15.584Z,8.10
2022-12-11T14:45:30.957Z,7.50
2022-12-11T14:48:45.012Z,7.78
2022-12-11T14:51:49.556Z,7.90
2022-12-11T14:54:58.214Z,9.07
2022-12-11T14:58:26.609Z,6.73
2022-12-11T15:01:37.964Z,9.48
2022-12-11T15:04:40.926Z,10.18
2022-12-11T15:07:54.912Z,8.52
2022-12-11T15:11:04.418Z,7.53
2022-12-11T15:14:12.587Z,7.43
2022-12-11T15:17:16.334Z,7.53
2022-12-11T15:20:30.546Z,7.55
2022-12-11T15:23:40.420Z,6.82
2022-12-11T15:26:48.126Z,6.60
2022-12-11T15:29:50.960Z,8.27
2022-12-11T15:33:12.163Z,10.18
2022-12-11T15:36:30.332Z,10.23
2022-12-11T15:39:33.528Z,10.13
2022-12-11T15:42:40.127Z,12.87
2022-12-11T15:45:43.633Z,14.20
2022-12-11T15:48:48.923Z,12.63
2022-12-11T15:51:52.563Z,9.88
2022-12-11T15:54:55.337Z,7.25
2022-12-11T15:58:02.022Z,5.97
2022-12-11T16:01:05.158Z,9.20
2022-12-11T16:04:08.444Z,8.38
2022-12-11T16:07:22.999Z,6.93
2022-12-11T16:10:27.238Z,6.75
2022-12-11T16:13:30.152Z,8.07
2022-12-11T16:16:33.249Z,8.87
2022-12-11T16:19:37.281Z,7.70
2022-12-11T16:22:40.063Z,7.97
2022-12-11T16:25:44.183Z,8.27
2022-12-11T16:28:47.007Z,7.77
2022-12-11T16:31:49.916Z,8.90
2022-12-11T16:34:53.068Z,8.10
2022-12-11T16:37:57.396Z,8.98
2022-12-11T16:41:01.865Z,8.98
2022-12-11T16:44:05.225Z,8.03
2022-12-11T16:47:08.029Z,7.27
2022-12-11T16:50:14.230Z,6.85
2022-12-11T16:53:17.710Z,8.05
2022-12-11T16:56:20.606Z,8.20
2022-12-11T16:59:24.047Z,7.57
2022-12-11T17:02:26.925Z,6.73
2022-12-11T17:05:30.056Z,6.18
2022-12-11T17:08:33.199Z,5.85
2022-12-11T17:11:36.132Z,7.22
2022-12-11T17:14:39.266Z,7.30
2022-12-11T17:17:43.452Z,8.70
2022-12-11T17:20:46.587Z,7.63
2022-12-11T17:23:50.904Z,7.40
2022-12-11T17:26:55.646Z,6.75
2022-12-11T17:29:59.606Z,7.57
2022-12-11T17:33:03.021Z,8.87
2022-12-11T17:36:07.913Z,6.60
2022-12-11T17:39:10.752Z,7.53
2022-12-11T17:42:13.970Z,7.53
2022-12-11T17:45:17.320Z,8.33
2022-12-11T17:48:22.856Z,7.37
2022-12-11T17:51:26.158Z,7.93
2022-12-11T17:54:29.326Z,6.57
2022-12-11T17:57:32.519Z,6.78
2022-12-11T18:00:42.553Z,5.97
2022-12-11T18:03:45.441Z,6.70
2022-12-11T18:06:48.305Z,6.75
2022-12-11T18:09:51.307Z,6.72
2022-12-11T18:12:54.313Z,7.75
2022-12-11T18:16:11.779Z,7.57
2022-12-11T18:19:15.961Z,7.20
2022-12-11T18:22:19.722Z,7.68
2022-12-11T18:25:22.672Z,7.90
2022-12-11T18:28:27.918Z,5.43
2022-12-11T18:31:30.939Z,6.40
2022-12-11T18:34:34.188Z,7.27
2022-12-11T18:37:38.257Z,7.68
2022-12-11T18:40:41.984Z,7.10
2022-12-11T18:43:45.783Z,6.75
2022-12-11T18:46:50.299Z,6.40
2022-12-11T18:49:53.988Z,8.13
2022-12-11T18:52:57.282Z,7.13
2022-12-11T18:56:00.938Z,7.00
2022-12-11T18:59:04.961Z,6.72
2022-12-11T19:02:08.300Z,7.10
2022-12-11T19:05:12.630Z,6.87
2022-12-11T19:08:16.858Z,6.78
2022-12-11T19:11:22.991Z,7.40
2022-12-11T19:14:26.183Z,6.30
2022-12-11T19:17:28.995Z,7.47
2022-12-11T19:20:48.605Z,8.33
2022-12-11T19:23:53.700Z,8.95
2022-12-11T19:26:57.470Z,7.93
2022-12-11T19:30:01.305Z,8.10
2022-12-11T19:33:04.505Z,7.50
2022-12-11T19:36:10.800Z,7.50
2022-12-11T19:39:16.601Z,8.68
2022-12-11T19:42:19.643Z,8.23
2022-12-11T19:45:22.939Z,9.25
2022-12-11T19:48:26.040Z,8.43
2022-12-11T19:51:33.884Z,8.10
2022-12-11T19:54:37.389Z,7.70
2022-12-11T19:57:41.048Z,7.28
2022-12-11T20:00:43.953Z,6.85
2022-12-11T20:03:47.142Z,6.77
2022-12-11T20:06:50.357Z,6.53
2022-12-11T20:09:53.355Z,6.93
2022-12-11T20:12:56.877Z,6.25
2022-12-11T20:16:00.978Z,6.95
2022-12-11T20:19:05.350Z,6.73
2022-12-11T20:22:09.369Z,6.30
2022-12-11T20:25:12.670Z,7.47
2022-12-11T20:28:16.150Z,7.07
2022-12-11T20:31:25.237Z,6.47
2022-12-11T20:34:28.459Z,6.57
2022-12-11T20:37:31.828Z,6.37
2022-12-11T20:40:36.653Z,7.63
2022-12-11T20:43:40.460Z,7.25
2022-12-11T20:46:43.473Z,8.50
2022-12-11T20:49:49.981Z,7.60
2022-12-11T20:52:52.830Z,8.27
2022-12-11T20:55:55.807Z,7.70
2022-12-11T20:59:00.114Z,8.27
2022-12-11T21:02:03.687Z,6.30
2022-12-11T21:05:07.142Z,6.17
2022-12-11T21:08:11.062Z,6.43
2022-12-11T21:11:14.665Z,5.93
2022-12-11T21:14:19.169Z,6.57
2022-12-11T21:17:22.560Z,5.63
2022-12-11T21:20:26.117Z,6.40
2022-12-11T21:23:29.072Z,5.80
2022-12-11T21:26:31.873Z,4.15
2022-12-11T21:29:35.008Z,5.15
2022-12-11T21:32:37.930Z,6.72
2022-12-11T21:35:40.785Z,6.33
2022-12-11T21:38:44.957Z,6.40
2022-12-11T21:41:47.949Z,6.95
2022-12-11T21:48:14.166Z,6.22
2022-12-11T21:51:36.129Z,6.23
2022-12-11T21:54:39.351Z,6.20
2022-12-11T21:57:42.089Z,6.65
2022-12-11T22:00:47.555Z,6.57
2022-12-11T22:03:51.503Z,6.57
2022-12-11T22:06:54.316Z,6.60
2022-12-11T22:09:58.164Z,6.87
2022-12-11T22:13:00.974Z,6.15
2022-12-11T22:16:03.918Z,5.75
2022-12-11T22:19:06.770Z,6.13
2022-12-11T22:22:09.567Z,7.23
2022-12-11T22:25:12.788Z,6.13
2022-12-11T22:28:15.896Z,5.32
2022-12-11T22:31:23.046Z,6.47
2022-12-11T22:34:25.860Z,6.85
2022-12-11T22:37:29.332Z,5.20
2022-12-11T22:40:33.099Z,5.07
2022-12-11T22:43:35.884Z,4.97
2022-12-11T22:46:38.662Z,4.65
2022-12-11T22:49:41.822Z,5.72
2022-12-11T22:52:45.602Z,5.53
2022-12-11T22:55:48.546Z,6.13
2022-12-11T22:58:51.408Z,6.05
2022-12-11T23:01:54.332Z,7.15
2022-12-11T23:04:57.168Z,5.65
2022-12-11T23:08:00.182Z,5.43
2022-12-11T23:11:09.923Z,7.10
2022-12-11T23:14:16.146Z,8.05
2022-12-11T23:17:18.942Z,7.97
2022-12-11T23:20:25.489Z,7.30
2022-12-11T23:23:28.763Z,6.47
2022-12-11T23:26:32.119Z,5.80
2022-12-11T23:29:35.005Z,6.65
2022-12-11T23:32:37.930Z,6.15
2022-12-11T23:35:41.066Z,5.85
2022-12-11T23:38:46.241Z,5.63
2022-12-11T23:41:52.402Z,5.37
2022-12-11T23:44:55.403Z,5.78
2022-12-11T23:47:58.173Z,5.90
2022-12-11T23:51:04.352Z,5.45
2022-12-11T23:54:07.549Z,6.27
2022-12-11T23:57:10.238Z,5.07
